Desterrado — CUCD7 — position and weather

sailwx.info

Track history (hours):
 
Tides and Currents Weather Stations Pressure Air Temp Water Temp Dewpoint Dewpoint Depression Visibility Wind Speed Wind Dir Waves Ship Positions

Desterrado

Last reported at 2018-Feb-23 13:36 UTC. Time now 2018-Feb-23 16:57 UTC.
Position N 38°28' W 009°40'.

Length 18 m.

Type: Fishing. MMSI: 263341000.

Date/timePositionNaut miles runAvg speedWind from/ knotsBaromVisibWave heightAir tempDewpointWater temp
2018-Feb-23 13:36N 38°28' W 009°40'2 2.9
2018-Feb-23 13:01N 38°27' W 009°38'110.2
2018-Feb-23 12:56N 38°27' W 009°37'510.1
2018-Feb-23 12:27N 38°26' W 009°31'5 9.9
2018-Feb-23 11:59N 38°26' W 009°25'5 9.7
2018-Feb-23 11:30N 38°25' W 009°19'5 9.7
2018-Feb-23 11:00N 38°24' W 009°13'5 9.3
2018-Feb-23 10:30N 38°26' W 009°07'1 1.5
2018-Feb-23 10:00N 38°26' W 009°07'0 0.1
2018-Feb-23 09:30N 38°26' W 009°07'0 0.0
2018-Feb-22 10:17N 38°26' W 009°07'0 0.2
2018-Feb-22 09:59N 38°26' W 009°07'5 6.7
2018-Feb-22 09:18N 38°24' W 009°12'3 9.5
2018-Feb-22 08:59N 38°24' W 009°16'5 9.3
2018-Feb-22 08:30N 38°25' W 009°22'20 5.1
2018-Feb-22 04:33N 38°36' W 009°44'0 2.9
2018-Feb-22 04:30N 38°35' W 009°44'3 5.7
2018-Feb-22 03:56N 38°32' W 009°45'0 0.5
2018-Feb-22 03:29N 38°32' W 009°45'0 0.6
2018-Feb-22 02:50N 38°32' W 009°45'0 0.9
2018-Feb-22 02:30N 38°32' W 009°46'1 1.0
2018-Feb-22 01:52N 38°31' W 009°46'1 1.0
2018-Feb-22 01:06N 38°31' W 009°47'0 1.0
2018-Feb-22 00:53N 38°30' W 009°47'0 1.1
2018-Feb-22 00:30N 38°30' W 009°47'1 1.0
2018-Feb-21 23:59N 38°30' W 009°47'0 0.8
2018-Feb-21 23:28N 38°29' W 009°48'0 0.5
2018-Feb-21 22:59N 38°29' W 009°48'0 0.4
2018-Feb-21 22:30N 38°29' W 009°48'4 8.0
2018-Feb-21 21:59N 38°28' W 009°43'3 6.3
2018-Feb-21 21:30N 38°27' W 009°39'1 1.5
2018-Feb-21 21:00N 38°26' W 009°39'1 2.4
2018-Feb-21 20:30N 38°25' W 009°40'2 4.1
2018-Feb-21 19:58N 38°26' W 009°42'1 2.6
2018-Feb-21 19:27N 38°27' W 009°44'2 1.1
2018-Feb-21 18:02N 38°26' W 009°42'0 1.1
2018-Feb-21 17:58N 38°26' W 009°42'2 1.0
2018-Feb-21 16:01N 38°27' W 009°39'0 0.4
2018-Feb-21 15:54N 38°27' W 009°39'2 1.0
2018-Feb-21 13:49N 38°25' W 009°39'410.1
2018-Feb-21 13:26N 38°25' W 009°34'510.0
2018-Feb-21 12:57N 38°25' W 009°28'4 9.7
2018-Feb-21 12:30N 38°25' W 009°22'5 9.6
2018-Feb-21 12:00N 38°24' W 009°16'6 9.4
2018-Feb-21 11:24N 38°25' W 009°09'2 5.4
2018-Feb-21 11:00N 38°26' W 009°07'0 0.0
2018-Feb-21 10:30N 38°26' W 009°07'0 0.1
2018-Feb-21 10:00N 38°26' W 009°07'0 0.0
2018-Feb-20 20:01N 38°26' W 009°07'0 0.0
2018-Feb-20 20:00N 38°26' W 009°07'0 0.3
2018-Feb-20 19:26N 38°26' W 009°07'3 6.7
2018-Feb-20 19:00N 38°25' W 009°10'5 9.6
2018-Feb-20 18:30N 38°24' W 009°16'5 9.5
2018-Feb-20 18:00N 38°25' W 009°22'5 9.1
2018-Feb-20 17:30N 38°25' W 009°28'4 8.9
2018-Feb-20 17:00N 38°25' W 009°33'5 9.0
2018-Feb-20 16:30N 38°26' W 009°39'5 8.5
2018-Feb-20 15:56N 38°27' W 009°45'6 4.7
2018-Feb-20 14:40N 38°33' W 009°44'1 4.7
2018-Feb-20 14:30N 38°34' W 009°44'1 1.5
2018-Feb-20 14:00N 38°33' W 009°44'0 0.3
2018-Feb-20 13:30N 38°33' W 009°44'0 0.3
2018-Feb-20 13:00N 38°33' W 009°44'0 0.8
2018-Feb-20 12:30N 38°33' W 009°45'1 1.0
2018-Feb-20 12:00N 38°32' W 009°45'0 0.9
2018-Feb-20 11:30N 38°32' W 009°45'1 1.1
2018-Feb-20 11:00N 38°31' W 009°46'1 1.0
2018-Feb-20 10:30N 38°31' W 009°46'0 0.9
2018-Feb-20 10:00N 38°31' W 009°47'0 0.6
2018-Feb-20 09:30N 38°31' W 009°47'0 0.2
2018-Feb-20 09:00N 38°31' W 009°47'0 0.3
2018-Feb-20 08:30N 38°31' W 009°47'1 1.8
2018-Feb-20 08:00N 38°30' W 009°47'4 8.4
2018-Feb-20 07:29N 38°27' W 009°43'2 2.1
2018-Feb-20 06:34N 38°26' W 009°41'1 4.8
2018-Feb-20 06:26N 38°26' W 009°40'2 3.4
2018-Feb-20 05:42N 38°28' W 009°38'1 5.3
2018-Feb-20 05:30N 38°27' W 009°39'1 1.4
2018-Feb-20 05:00N 38°27' W 009°39'0 0.1
2018-Feb-20 04:26N 38°27' W 009°39'0 0.3
2018-Feb-20 04:00N 38°27' W 009°40'0 0.6
2018-Feb-20 03:29N 38°27' W 009°40'2 0.4
2018-Feb-19 23:41N 38°27' W 009°38'1 5.5
2018-Feb-19 23:29N 38°28' W 009°37'3 7.0
2018-Feb-19 23:00N 38°28' W 009°33'4 7.6
2018-Feb-19 22:30N 38°27' W 009°28'4 7.9
2018-Feb-19 22:00N 38°26' W 009°23'4 8.6
2018-Feb-19 21:30N 38°25' W 009°18'5 8.8
2018-Feb-19 20:59N 38°24' W 009°12'5 8.7
2018-Feb-19 20:26N 38°26' W 009°07'0 1.0
2018-Feb-19 19:59N 38°26' W 009°07'1 1.4
2018-Feb-19 19:30N 38°26' W 009°07'5 9.3
2018-Feb-19 18:59N 38°24' W 009°13'5 9.3
2018-Feb-19 18:30N 38°25' W 009°19'5 9.1
2018-Feb-19 18:00N 38°25' W 009°24'5 9.0
2018-Feb-19 17:29N 38°26' W 009°30'4 9.0
2018-Feb-19 17:00N 38°26' W 009°36'10 7.9
2018-Feb-19 15:47N 38°30' W 009°47'0 0.1
2018-Feb-19 15:29N 38°30' W 009°47'0 0.1
2018-Feb-19 14:52N 38°30' W 009°47'0 0.5
2018-Feb-19 14:30N 38°30' W 009°47'1 2.0
2018-Feb-19 13:56N 38°30' W 009°46'2 4.6
2018-Feb-19 13:30N 38°28' W 009°45'5 9.4
2018-Feb-19 12:58N 38°27' W 009°39'5 9.7
2018-Feb-19 12:29N 38°26' W 009°33'510.0
2018-Feb-19 12:00N 38°26' W 009°26'510.0
2018-Feb-19 11:30N 38°25' W 009°20'5 9.9
2018-Feb-19 10:58N 38°24' W 009°13'4 9.3
2018-Feb-19 10:30N 38°25' W 009°08'1 3.0
2018-Feb-19 10:00N 38°26' W 009°07'0 0.4
2018-Feb-19 09:30N 38°26' W 009°07'0 0.0
2018-Feb-18 11:24N 38°26' W 009°07'0 0.0
2018-Feb-18 11:00N 38°26' W 009°07'0 0.0
2018-Feb-18 10:07N 38°26' W 009°07'0 0.0
2018-Feb-18 09:59N 38°26' W 009°07'0 0.0
2018-Feb-18 09:27N 38°26' W 009°07'0 0.0
2018-Feb-17 08:14N 38°26' W 009°07'0 0.4
2018-Feb-17 07:47N 38°26' W 009°07'2 6.7
2018-Feb-17 07:31N 38°25' W 009°09'5 9.4
2018-Feb-17 07:00N 38°25' W 009°15'5 9.2
2018-Feb-17 06:30N 38°25' W 009°20'5 9.2
2018-Feb-17 06:00N 38°25' W 009°26'11 6.9
2018-Feb-17 04:26N 38°27' W 009°40'2 4.6
2018-Feb-17 03:57N 38°27' W 009°37'2 0.9
2018-Feb-17 01:28N 38°26' W 009°40'0 0.8
2018-Feb-17 00:56N 38°26' W 009°40'0 0.6
2018-Feb-17 00:24N 38°26' W 009°40'0 0.7
2018-Feb-16 23:59N 38°26' W 009°40'0 0.7
2018-Feb-16 23:19N 38°25' W 009°40'0 1.2
2018-Feb-16 23:00N 38°25' W 009°39'8 7.2
2018-Feb-16 21:57N 38°30' W 009°47'3 5.6
2018-Feb-16 21:28N 38°32' W 009°45'2 4.7
2018-Feb-16 21:00N 38°34' W 009°44'1 2.6
2018-Feb-16 20:29N 38°33' W 009°44'0 0.6
2018-Feb-16 20:00N 38°33' W 009°45'0 0.7
2018-Feb-16 19:30N 38°32' W 009°45'1 1.1
2018-Feb-16 19:00N 38°32' W 009°45'1 1.1
2018-Feb-16 18:29N 38°31' W 009°45'1 1.2
2018-Feb-16 18:01N 38°31' W 009°46'1 1.2
2018-Feb-16 17:26N 38°30' W 009°46'0 1.1
2018-Feb-16 16:59N 38°30' W 009°46'0 0.9
2018-Feb-16 16:30N 38°29' W 009°47'0 0.5
2018-Feb-16 16:00N 38°29' W 009°47'0 0.4
2018-Feb-16 15:30N 38°29' W 009°47'3 5.5
2018-Feb-16 15:00N 38°28' W 009°43'5 9.3
2018-Feb-16 14:26N 38°27' W 009°37'4 9.3
2018-Feb-16 14:00N 38°27' W 009°32'5 9.8
2018-Feb-16 13:28N 38°26' W 009°25'5 9.8
2018-Feb-16 12:59N 38°25' W 009°19'5 9.6
2018-Feb-16 12:28N 38°24' W 009°13'4 9.0
2018-Feb-16 11:58N 38°26' W 009°07'1 2.2
2018-Feb-16 11:30N 38°26' W 009°07'0 0.0
2018-Feb-16 10:59N 38°26' W 009°07'1 1.4
2018-Feb-16 10:29N 38°26' W 009°07'1 1.3
2018-Feb-16 10:00N 38°26' W 009°07'0 0.1
2018-Feb-16 09:30N 38°26' W 009°07'0 0.0
2018-Feb-15 16:03N 38°26' W 009°07'0 0.0
2018-Feb-15 15:59N 38°26' W 009°07'0 0.0
2018-Feb-15 15:30N 38°26' W 009°07'0 0.0
2018-Feb-15 09:47N 38°26' W 009°07'0 0.6
2018-Feb-15 09:30N 38°26' W 009°07'0 0.1
2018-Feb-15 08:58N 38°26' W 009°07'0 0.1
2018-Feb-15 07:33N 38°26' W 009°07'0 0.0
2018-Feb-15 07:30N 38°26' W 009°07'0 0.1
2018-Feb-15 06:47N 38°26' W 009°07'5 7.8
2018-Feb-15 06:11N 38°24' W 009°12'2 9.2
2018-Feb-15 05:59N 38°24' W 009°14'4 8.9
2018-Feb-15 05:30N 38°25' W 009°20'5 9.0
2018-Feb-15 04:58N 38°25' W 009°26'4 9.1
2018-Feb-15 04:29N 38°25' W 009°32'4 9.0
2018-Feb-15 03:59N 38°25' W 009°38'3 4.2
2018-Feb-15 03:23N 38°26' W 009°40'2 4.8
2018-Feb-15 03:00N 38°27' W 009°38'1 1.3
2018-Feb-15 02:30N 38°27' W 009°38'1 1.0
2018-Feb-15 01:57N 38°27' W 009°38'0 0.6
2018-Feb-15 01:22N 38°27' W 009°39'0 0.8
2018-Feb-15 00:50N 38°27' W 009°39'0 0.9
2018-Feb-15 00:22N 38°27' W 009°40'0 0.8
2018-Feb-14 23:52N 38°26' W 009°40'0 0.7
2018-Feb-14 23:14N 38°26' W 009°40'0 0.6
2018-Feb-14 23:00N 38°26' W 009°40'0 0.5
2018-Feb-14 22:14N 38°25' W 009°40'0 0.9
2018-Feb-14 21:50N 38°25' W 009°40'8 4.6
2018-Feb-14 20:07N 38°32' W 009°45'1 5.0
2018-Feb-14 19:59N 38°33' W 009°44'0 0.8
2018-Feb-14 19:30N 38°33' W 009°44'0 0.7
2018-Feb-14 18:58N 38°33' W 009°44'0 0.5
2018-Feb-14 18:30N 38°33' W 009°45'0 0.9
2018-Feb-14 18:00N 38°32' W 009°45'0 0.9
2018-Feb-14 17:30N 38°32' W 009°45'1 1.0
2018-Feb-14 16:55N 38°31' W 009°46'0 1.0
2018-Feb-14 16:29N 38°31' W 009°46'1 1.1
2018-Feb-14 15:59N 38°30' W 009°46'1 0.9
2018-Feb-14 15:28N 38°30' W 009°47'1 1.0
2018-Feb-14 14:45N 38°29' W 009°47'0 0.6
2018-Feb-14 14:27N 38°29' W 009°47'0 0.7
2018-Feb-14 13:59N 38°29' W 009°47'2 4.1
2018-Feb-14 13:30N 38°28' W 009°44'5 8.8
2018-Feb-14 12:56N 38°27' W 009°38'4 8.8
2018-Feb-14 12:30N 38°27' W 009°33'4 8.6
2018-Feb-14 12:00N 38°26' W 009°28'5 8.8
2018-Feb-14 11:29N 38°25' W 009°22'5 9.4
2018-Feb-14 11:00N 38°25' W 009°16'6 9.1
2018-Feb-14 10:17N 38°25' W 009°08'1 4.5
2018-Feb-14 09:59N 38°26' W 009°07'0 0.0
2018-Feb-14 09:30N 38°26' W 009°07'  
Track history (hours):
 
Tides and Currents Weather Stations Pressure Air Temp Water Temp Dewpoint Dewpoint Depression Visibility Wind Speed Wind Dir Waves Ship Positions

Desterrado

Last reported at 2018-Feb-23 13:36 UTC. Time now 2018-Feb-23 16:57 UTC.
Position N 38°28' W 009°40'.

Length 18 m.

Type: Fishing. MMSI: 263341000.

Date/timePositionNaut miles runAvg speedWind from/ knotsBaromVisibWave heightAir tempDewpointWater temp
2018-Feb-23 13:36N 38°28' W 009°40'2 2.9
2018-Feb-23 13:01N 38°27' W 009°38'110.2
2018-Feb-23 12:56N 38°27' W 009°37'510.1
2018-Feb-23 12:27N 38°26' W 009°31'5 9.9
2018-Feb-23 11:59N 38°26' W 009°25'5 9.7
2018-Feb-23 11:30N 38°25' W 009°19'5 9.7
2018-Feb-23 11:00N 38°24' W 009°13'5 9.3
2018-Feb-23 10:30N 38°26' W 009°07'1 1.5
2018-Feb-23 10:00N 38°26' W 009°07'0 0.1
2018-Feb-23 09:30N 38°26' W 009°07'0 0.0
2018-Feb-22 10:17N 38°26' W 009°07'0 0.2
2018-Feb-22 09:59N 38°26' W 009°07'5 6.7
2018-Feb-22 09:18N 38°24' W 009°12'3 9.5
2018-Feb-22 08:59N 38°24' W 009°16'5 9.3
2018-Feb-22 08:30N 38°25' W 009°22'20 5.1
2018-Feb-22 04:33N 38°36' W 009°44'0 2.9
2018-Feb-22 04:30N 38°35' W 009°44'3 5.7
2018-Feb-22 03:56N 38°32' W 009°45'0 0.5
2018-Feb-22 03:29N 38°32' W 009°45'0 0.6
2018-Feb-22 02:50N 38°32' W 009°45'0 0.9
2018-Feb-22 02:30N 38°32' W 009°46'1 1.0
2018-Feb-22 01:52N 38°31' W 009°46'1 1.0
2018-Feb-22 01:06N 38°31' W 009°47'0 1.0
2018-Feb-22 00:53N 38°30' W 009°47'0 1.1
2018-Feb-22 00:30N 38°30' W 009°47'1 1.0
2018-Feb-21 23:59N 38°30' W 009°47'0 0.8
2018-Feb-21 23:28N 38°29' W 009°48'0 0.5
2018-Feb-21 22:59N 38°29' W 009°48'0 0.4
2018-Feb-21 22:30N 38°29' W 009°48'4 8.0
2018-Feb-21 21:59N 38°28' W 009°43'3 6.3
2018-Feb-21 21:30N 38°27' W 009°39'1 1.5
2018-Feb-21 21:00N 38°26' W 009°39'1 2.4
2018-Feb-21 20:30N 38°25' W 009°40'2 4.1
2018-Feb-21 19:58N 38°26' W 009°42'1 2.6
2018-Feb-21 19:27N 38°27' W 009°44'2 1.1
2018-Feb-21 18:02N 38°26' W 009°42'0 1.1
2018-Feb-21 17:58N 38°26' W 009°42'2 1.0
2018-Feb-21 16:01N 38°27' W 009°39'0 0.4
2018-Feb-21 15:54N 38°27' W 009°39'2 1.0
2018-Feb-21 13:49N 38°25' W 009°39'410.1
2018-Feb-21 13:26N 38°25' W 009°34'510.0
2018-Feb-21 12:57N 38°25' W 009°28'4 9.7
2018-Feb-21 12:30N 38°25' W 009°22'5 9.6
2018-Feb-21 12:00N 38°24' W 009°16'6 9.4
2018-Feb-21 11:24N 38°25' W 009°09'2 5.4
2018-Feb-21 11:00N 38°26' W 009°07'0 0.0
2018-Feb-21 10:30N 38°26' W 009°07'0 0.1
2018-Feb-21 10:00N 38°26' W 009°07'0 0.0
2018-Feb-20 20:01N 38°26' W 009°07'0 0.0
2018-Feb-20 20:00N 38°26' W 009°07'0 0.3
2018-Feb-20 19:26N 38°26' W 009°07'3 6.7
2018-Feb-20 19:00N 38°25' W 009°10'5 9.6
2018-Feb-20 18:30N 38°24' W 009°16'5 9.5
2018-Feb-20 18:00N 38°25' W 009°22'5 9.1
2018-Feb-20 17:30N 38°25' W 009°28'4 8.9
2018-Feb-20 17:00N 38°25' W 009°33'5 9.0
2018-Feb-20 16:30N 38°26' W 009°39'5 8.5
2018-Feb-20 15:56N 38°27' W 009°45'6 4.7
2018-Feb-20 14:40N 38°33' W 009°44'1 4.7
2018-Feb-20 14:30N 38°34' W 009°44'1 1.5
2018-Feb-20 14:00N 38°33' W 009°44'0 0.3
2018-Feb-20 13:30N 38°33' W 009°44'0 0.3
2018-Feb-20 13:00N 38°33' W 009°44'0 0.8
2018-Feb-20 12:30N 38°33' W 009°45'1 1.0
2018-Feb-20 12:00N 38°32' W 009°45'0 0.9
2018-Feb-20 11:30N 38°32' W 009°45'1 1.1
2018-Feb-20 11:00N 38°31' W 009°46'1 1.0
2018-Feb-20 10:30N 38°31' W 009°46'0 0.9
2018-Feb-20 10:00N 38°31' W 009°47'0 0.6
2018-Feb-20 09:30N 38°31' W 009°47'0 0.2
2018-Feb-20 09:00N 38°31' W 009°47'0 0.3
2018-Feb-20 08:30N 38°31' W 009°47'1 1.8
2018-Feb-20 08:00N 38°30' W 009°47'4 8.4
2018-Feb-20 07:29N 38°27' W 009°43'2 2.1
2018-Feb-20 06:34N 38°26' W 009°41'1 4.8
2018-Feb-20 06:26N 38°26' W 009°40'2 3.4
2018-Feb-20 05:42N 38°28' W 009°38'1 5.3
2018-Feb-20 05:30N 38°27' W 009°39'1 1.4
2018-Feb-20 05:00N 38°27' W 009°39'0 0.1
2018-Feb-20 04:26N 38°27' W 009°39'0 0.3
2018-Feb-20 04:00N 38°27' W 009°40'0 0.6
2018-Feb-20 03:29N 38°27' W 009°40'2 0.4
2018-Feb-19 23:41N 38°27' W 009°38'1 5.5
2018-Feb-19 23:29N 38°28' W 009°37'3 7.0
2018-Feb-19 23:00N 38°28' W 009°33'4 7.6
2018-Feb-19 22:30N 38°27' W 009°28'4 7.9
2018-Feb-19 22:00N 38°26' W 009°23'4 8.6
2018-Feb-19 21:30N 38°25' W 009°18'5 8.8
2018-Feb-19 20:59N 38°24' W 009°12'5 8.7
2018-Feb-19 20:26N 38°26' W 009°07'0 1.0
2018-Feb-19 19:59N 38°26' W 009°07'1 1.4
2018-Feb-19 19:30N 38°26' W 009°07'5 9.3
2018-Feb-19 18:59N 38°24' W 009°13'5 9.3
2018-Feb-19 18:30N 38°25' W 009°19'5 9.1
2018-Feb-19 18:00N 38°25' W 009°24'5 9.0
2018-Feb-19 17:29N 38°26' W 009°30'4 9.0
2018-Feb-19 17:00N 38°26' W 009°36'10 7.9
2018-Feb-19 15:47N 38°30' W 009°47'0 0.1
2018-Feb-19 15:29N 38°30' W 009°47'0 0.1
2018-Feb-19 14:52N 38°30' W 009°47'0 0.5
2018-Feb-19 14:30N 38°30' W 009°47'1 2.0
2018-Feb-19 13:56N 38°30' W 009°46'2 4.6
2018-Feb-19 13:30N 38°28' W 009°45'5 9.4
2018-Feb-19 12:58N 38°27' W 009°39'5 9.7
2018-Feb-19 12:29N 38°26' W 009°33'510.0
2018-Feb-19 12:00N 38°26' W 009°26'510.0
2018-Feb-19 11:30N 38°25' W 009°20'5 9.9
2018-Feb-19 10:58N 38°24' W 009°13'4 9.3
2018-Feb-19 10:30N 38°25' W 009°08'1 3.0
2018-Feb-19 10:00N 38°26' W 009°07'0 0.4
2018-Feb-19 09:30N 38°26' W 009°07'0 0.0
2018-Feb-18 11:24N 38°26' W 009°07'0 0.0
2018-Feb-18 11:00N 38°26' W 009°07'0 0.0
2018-Feb-18 10:07N 38°26' W 009°07'0 0.0
2018-Feb-18 09:59N 38°26' W 009°07'0 0.0
2018-Feb-18 09:27N 38°26' W 009°07'0 0.0
2018-Feb-17 08:14N 38°26' W 009°07'0 0.4
2018-Feb-17 07:47N 38°26' W 009°07'2 6.7
2018-Feb-17 07:31N 38°25' W 009°09'5 9.4
2018-Feb-17 07:00N 38°25' W 009°15'5 9.2
2018-Feb-17 06:30N 38°25' W 009°20'5 9.2
2018-Feb-17 06:00N 38°25' W 009°26'11 6.9
2018-Feb-17 04:26N 38°27' W 009°40'2 4.6
2018-Feb-17 03:57N 38°27' W 009°37'2 0.9
2018-Feb-17 01:28N 38°26' W 009°40'0 0.8
2018-Feb-17 00:56N 38°26' W 009°40'0 0.6
2018-Feb-17 00:24N 38°26' W 009°40'0 0.7
2018-Feb-16 23:59N 38°26' W 009°40'0 0.7
2018-Feb-16 23:19N 38°25' W 009°40'0 1.2
2018-Feb-16 23:00N 38°25' W 009°39'8 7.2
2018-Feb-16 21:57N 38°30' W 009°47'3 5.6
2018-Feb-16 21:28N 38°32' W 009°45'2 4.7
2018-Feb-16 21:00N 38°34' W 009°44'1 2.6
2018-Feb-16 20:29N 38°33' W 009°44'0 0.6
2018-Feb-16 20:00N 38°33' W 009°45'0 0.7
2018-Feb-16 19:30N 38°32' W 009°45'1 1.1
2018-Feb-16 19:00N 38°32' W 009°45'1 1.1
2018-Feb-16 18:29N 38°31' W 009°45'1 1.2
2018-Feb-16 18:01N 38°31' W 009°46'1 1.2
2018-Feb-16 17:26N 38°30' W 009°46'0 1.1
2018-Feb-16 16:59N 38°30' W 009°46'0 0.9
2018-Feb-16 16:30N 38°29' W 009°47'0 0.5
2018-Feb-16 16:00N 38°29' W 009°47'0 0.4
2018-Feb-16 15:30N 38°29' W 009°47'3 5.5
2018-Feb-16 15:00N 38°28' W 009°43'5 9.3
2018-Feb-16 14:26N 38°27' W 009°37'4 9.3
2018-Feb-16 14:00N 38°27' W 009°32'5 9.8
2018-Feb-16 13:28N 38°26' W 009°25'5 9.8
2018-Feb-16 12:59N 38°25' W 009°19'5 9.6
2018-Feb-16 12:28N 38°24' W 009°13'4 9.0
2018-Feb-16 11:58N 38°26' W 009°07'1 2.2
2018-Feb-16 11:30N 38°26' W 009°07'0 0.0
2018-Feb-16 10:59N 38°26' W 009°07'1 1.4
2018-Feb-16 10:29N 38°26' W 009°07'1 1.3
2018-Feb-16 10:00N 38°26' W 009°07'0 0.1
2018-Feb-16 09:30N 38°26' W 009°07'0 0.0
2018-Feb-15 16:03N 38°26' W 009°07'0 0.0
2018-Feb-15 15:59N 38°26' W 009°07'0 0.0
2018-Feb-15 15:30N 38°26' W 009°07'0 0.0
2018-Feb-15 09:47N 38°26' W 009°07'0 0.6
2018-Feb-15 09:30N 38°26' W 009°07'0 0.1
2018-Feb-15 08:58N 38°26' W 009°07'0 0.1
2018-Feb-15 07:33N 38°26' W 009°07'0 0.0
2018-Feb-15 07:30N 38°26' W 009°07'0 0.1
2018-Feb-15 06:47N 38°26' W 009°07'5 7.8
2018-Feb-15 06:11N 38°24' W 009°12'2 9.2
2018-Feb-15 05:59N 38°24' W 009°14'4 8.9
2018-Feb-15 05:30N 38°25' W 009°20'5 9.0
2018-Feb-15 04:58N 38°25' W 009°26'4 9.1
2018-Feb-15 04:29N 38°25' W 009°32'4 9.0
2018-Feb-15 03:59N 38°25' W 009°38'3 4.2
2018-Feb-15 03:23N 38°26' W 009°40'2 4.8
2018-Feb-15 03:00N 38°27' W 009°38'1 1.3
2018-Feb-15 02:30N 38°27' W 009°38'1 1.0
2018-Feb-15 01:57N 38°27' W 009°38'0 0.6
2018-Feb-15 01:22N 38°27' W 009°39'0 0.8
2018-Feb-15 00:50N 38°27' W 009°39'0 0.9
2018-Feb-15 00:22N 38°27' W 009°40'0 0.8
2018-Feb-14 23:52N 38°26' W 009°40'0 0.7
2018-Feb-14 23:14N 38°26' W 009°40'0 0.6
2018-Feb-14 23:00N 38°26' W 009°40'0 0.5
2018-Feb-14 22:14N 38°25' W 009°40'0 0.9
2018-Feb-14 21:50N 38°25' W 009°40'8 4.6
2018-Feb-14 20:07N 38°32' W 009°45'1 5.0
2018-Feb-14 19:59N 38°33' W 009°44'0 0.8
2018-Feb-14 19:30N 38°33' W 009°44'0 0.7
2018-Feb-14 18:58N 38°33' W 009°44'0 0.5
2018-Feb-14 18:30N 38°33' W 009°45'0 0.9
2018-Feb-14 18:00N 38°32' W 009°45'0 0.9
2018-Feb-14 17:30N 38°32' W 009°45'1 1.0
2018-Feb-14 16:55N 38°31' W 009°46'0 1.0
2018-Feb-14 16:29N 38°31' W 009°46'1 1.1
2018-Feb-14 15:59N 38°30' W 009°46'1 0.9
2018-Feb-14 15:28N 38°30' W 009°47'1 1.0
2018-Feb-14 14:45N 38°29' W 009°47'0 0.6
2018-Feb-14 14:27N 38°29' W 009°47'0 0.7
2018-Feb-14 13:59N 38°29' W 009°47'2 4.1
2018-Feb-14 13:30N 38°28' W 009°44'5 8.8
2018-Feb-14 12:56N 38°27' W 009°38'4 8.8
2018-Feb-14 12:30N 38°27' W 009°33'4 8.6
2018-Feb-14 12:00N 38°26' W 009°28'5 8.8
2018-Feb-14 11:29N 38°25' W 009°22'5 9.4
2018-Feb-14 11:00N 38°25' W 009°16'6 9.1
2018-Feb-14 10:17N 38°25' W 009°08'1 4.5
2018-Feb-14 09:59N 38°26' W 009°07'0 0.0
2018-Feb-14 09:30N 38°26' W 009°07'  

Dump ship's entire track history